Time;durP1;ratioP1;P1;durP2;ratioP2;P2;SDS_P1;SDS_P2;PMS_P1;PMS_P2;Temp;Humidity;BMP_temperature;BMP_pressure;BME280_temperature;BME280_humidity;BME280_pressure;Samples;Min_cycle;Max_cycle;Signal;HPM_P1;HPM_P2
2022/02/21 00:00:09;;;;;;;26.27;15.98;;;4.60;99.90;;;;;;5086206;28;20404;-46
2022/02/21 00:02:35;;;;;;;35.70;23.08;;;4.50;99.90;;;;;;5051552;28;20036;-52
2022/02/21 00:05:01;;;;;;;30.50;20.42;;;4.70;99.90;;;;;;5077975;28;20412;-50
2022/02/21 00:07:27;;;;;;;30.25;20.02;;;4.80;99.90;;;;;;5087549;28;20039;-48
2022/02/21 00:09:53;;;;;;;29.60;19.00;;;5.00;99.90;;;;;;5075680;28;20028;-49
2022/02/21 00:12:18;;;;;;;32.83;19.40;;;5.00;99.90;;;;;;5096303;28;20041;-58
2022/02/21 00:14:44;;;;;;;35.78;19.10;;;5.00;99.90;;;;;;5060503;28;20529;-53
2022/02/21 00:17:10;;;;;;;32.10;18.85;;;5.00;99.90;;;;;;5100252;28;20052;-49
2022/02/21 00:19:36;;;;;;;26.98;15.80;;;5.00;99.90;;;;;;5101066;28;20041;-52
2022/02/21 00:22:02;;;;;;;24.77;15.85;;;4.90;99.90;;;;;;5086153;28;20115;-48
2022/02/21 00:24:27;;;;;;;26.65;16.55;;;4.70;99.90;;;;;;5091020;28;20071;-51
2022/02/21 00:26:53;;;;;;;23.83;16.23;;;4.60;99.90;;;;;;5061009;28;20048;-52
2022/02/21 00:29:19;;;;;;;20.52;14.32;;;4.60;99.90;;;;;;5086575;28;20043;-49
2022/02/21 00:31:45;;;;;;;23.08;15.30;;;4.60;99.90;;;;;;5103609;28;20029;-53
2022/02/21 00:34:10;;;;;;;22.90;15.25;;;4.70;99.90;;;;;;5105489;28;20481;-51
2022/02/21 00:36:36;;;;;;;22.98;15.55;;;4.70;99.90;;;;;;5090437;28;20127;-51
2022/02/21 00:39:03;;;;;;;24.88;15.10;;;4.70;99.90;;;;;;5093220;28;20040;-59
2022/02/21 00:41:29;;;;;;;23.92;16.75;;;4.70;99.90;;;;;;5081992;28;20093;-47
2022/02/21 00:43:55;;;;;;;20.67;14.65;;;4.70;99.90;;;;;;5102806;28;20027;-52
2022/02/21 00:46:20;;;;;;;24.65;15.52;;;4.80;99.90;;;;;;5092430;28;20043;-51
2022/02/21 00:48:46;;;;;;;22.98;14.77;;;4.70;99.90;;;;;;5110774;28;20027;-52
2022/02/21 00:51:12;;;;;;;24.00;15.27;;;4.80;99.90;;;;;;5087932;28;20035;-61
2022/02/21 00:53:38;;;;;;;26.15;15.23;;;4.80;99.90;;;;;;5103147;28;20563;-52
2022/02/21 00:56:05;;;;;;;23.27;15.10;;;4.80;99.90;;;;;;5088176;28;20040;-49
2022/02/21 00:58:32;;;;;;;23.65;15.20;;;4.80;99.90;;;;;;5103921;28;20047;-50
2022/02/21 01:00:57;;;;;;;22.67;15.38;;;4.90;99.90;;;;;;5108058;28;20020;-51
2022/02/21 01:03:23;;;;;;;22.27;14.15;;;4.80;99.90;;;;;;5054048;28;20050;-52
2022/02/21 01:05:49;;;;;;;18.48;12.20;;;4.70;99.90;;;;;;5103921;28;20479;-54
2022/02/21 01:08:15;;;;;;;20.42;13.80;;;4.50;99.90;;;;;;5108481;28;20034;-50
2022/02/21 01:10:41;;;;;;;21.38;14.32;;;4.30;99.90;;;;;;5033656;28;20476;-51
2022/02/21 01:13:07;;;;;;;26.25;16.92;;;4.20;99.90;;;;;;5117015;28;20031;-51
2022/02/21 01:15:33;;;;;;;18.60;13.30;;;4.40;99.90;;;;;;5110501;28;20027;-54
2022/02/21 01:17:59;;;;;;;16.88;12.43;;;4.40;99.90;;;;;;5064662;28;20131;-52
2022/02/21 01:20:25;;;;;;;18.25;13.18;;;4.40;99.90;;;;;;5108266;28;20020;-51
2022/02/21 01:22:51;;;;;;;17.88;12.15;;;4.30;99.90;;;;;;5102360;28;20512;-48
2022/02/21 01:25:17;;;;;;;18.27;12.93;;;4.30;99.90;;;;;;5086248;28;20047;-51
2022/02/21 01:27:43;;;;;;;27.15;15.70;;;4.40;99.90;;;;;;5106819;28;20085;-49
2022/02/21 01:30:10;;;;;;;21.02;12.07;;;4.50;99.90;;;;;;5105164;28;20097;-47
2022/02/21 01:32:36;;;;;;;16.25;11.88;;;4.40;99.90;;;;;;5086100;28;20545;-49
2022/02/21 01:35:03;;;;;;;21.00;11.93;;;4.50;99.90;;;;;;5111704;28;20024;-52
2022/02/21 01:37:29;;;;;;;22.45;13.32;;;4.40;99.90;;;;;;5063814;28;20434;-55
2022/02/21 01:39:54;;;;;;;23.67;13.93;;;4.20;99.90;;;;;;5106649;28;20475;-48
2022/02/21 01:42:20;;;;;;;16.85;11.27;;;4.30;99.90;;;;;;5103687;28;20032;-55
2022/02/21 01:44:49;;;;;;;12.75;9.48;;;;;;;;;;5087031;28;20039;-49
2022/02/21 01:47:21;;;;;;;19.30;12.25;;;3.70;99.90;;;;;;5097578;28;20032;-51
2022/02/21 01:49:47;;;;;;;15.25;9.93;;;3.60;99.90;;;;;;5105642;28;20379;-47
2022/02/21 01:52:13;;;;;;;20.48;12.63;;;3.70;99.90;;;;;;5113106;28;20482;-49
2022/02/21 01:54:40;;;;;;;18.45;11.80;;;3.80;99.90;;;;;;5111191;28;20161;-52
2022/02/21 01:57:06;;;;;;;19.42;12.85;;;3.90;99.90;;;;;;5104238;28;20032;-50
2022/02/21 01:59:33;;;;;;;18.88;12.07;;;4.00;99.90;;;;;;5079752;28;20032;-53
2022/02/21 02:01:59;;;;;;;15.30;11.13;;;4.00;99.90;;;;;;5084272;28;20115;-47
2022/02/21 02:04:25;;;;;;;16.90;11.55;;;4.00;99.90;;;;;;5110497;28;20378;-52
2022/02/21 02:06:52;;;;;;;20.85;13.20;;;4.00;99.90;;;;;;5109381;28;20103;-50
2022/02/21 02:09:17;;;;;;;20.77;12.18;;;4.10;99.90;;;;;;5108369;28;20103;-52
2022/02/21 02:11:44;;;;;;;19.05;11.68;;;4.10;99.90;;;;;;5031219;28;20142;-48
2022/02/21 02:14:34;;;;;;;17.73;12.52;;;4.00;99.90;;;;;;5069431;28;20036;-49
2022/02/21 02:17:12;;;;;;;18.70;9.93;;;4.00;99.90;;;;;;5108770;28;20043;-53
2022/02/21 02:19:38;;;;;;;15.68;11.00;;;3.90;99.90;;;;;;5096657;28;20433;-51
2022/02/21 02:22:11;;;;;;;22.98;12.48;;;4.10;99.90;;;;;;5103351;28;20102;-52
2022/02/21 02:24:37;;;;;;;17.20;10.60;;;4.00;99.90;;;;;;5104972;28;20066;-52
2022/02/21 02:27:03;;;;;;;16.20;11.30;;;3.90;99.90;;;;;;5067676;28;20463;-54
2022/02/21 02:29:29;;;;;;;15.82;10.88;;;3.80;99.90;;;;;;5106836;28;20107;-49
2022/02/21 02:31:55;;;;;;;17.45;12.63;;;3.90;99.90;;;;;;5067110;28;20473;-48
2022/02/21 02:34:21;;;;;;;19.05;12.77;;;4.10;99.90;;;;;;5105766;28;20047;-51
2022/02/21 02:36:48;;;;;;;17.35;12.35;;;4.30;99.90;;;;;;5108163;28;20035;-50
2022/02/21 02:39:15;;;;;;;19.35;12.23;;;4.30;99.90;;;;;;5105247;28;20069;-53
2022/02/21 02:41:42;;;;;;;19.80;13.50;;;4.20;99.90;;;;;;5072508;28;20383;-49
2022/02/21 02:44:08;;;;;;;20.73;14.20;;;4.20;99.90;;;;;;5070896;28;20551;-50
2022/02/21 02:46:34;;;;;;;17.67;11.05;;;4.10;99.90;;;;;;5045297;28;20119;-50
2022/02/21 02:49:00;;;;;;;15.38;11.23;;;4.00;99.90;;;;;;5100885;28;20032;-48
2022/02/21 02:51:26;;;;;;;15.50;11.18;;;4.00;99.90;;;;;;5111675;28;20462;-52
2022/02/21 02:53:53;;;;;;;19.35;12.98;;;3.90;99.90;;;;;;5107112;28;20069;-49
2022/02/21 02:56:19;;;;;;;17.30;11.35;;;3.90;99.90;;;;;;5110988;28;20063;-53
2022/02/21 02:58:44;;;;;;;17.30;12.10;;;3.70;99.90;;;;;;5107716;28;20111;-52
2022/02/21 03:01:10;;;;;;;18.98;12.15;;;3.80;99.90;;;;;;5105162;28;20031;-53
2022/02/21 03:03:36;;;;;;;19.70;13.38;;;3.70;99.90;;;;;;5084284;28;20035;-52
2022/02/21 03:06:02;;;;;;;17.60;11.85;;;3.90;99.90;;;;;;5052151;28;20040;-52
2022/02/21 03:08:27;;;;;;;20.50;13.95;;;3.90;99.90;;;;;;5106189;28;20047;-48
2022/02/21 03:10:53;;;;;;;17.45;12.60;;;4.10;99.90;;;;;;5105358;28;20032;-52
2022/02/21 03:13:19;;;;;;;21.58;13.65;;;4.10;99.90;;;;;;5103407;28;20550;-51
2022/02/21 03:15:45;;;;;;;20.15;14.50;;;4.20;99.90;;;;;;5105800;28;20027;-51
2022/02/21 03:18:10;;;;;;;22.98;15.85;;;4.20;99.90;;;;;;5099825;28;20475;-50
2022/02/21 03:20:36;;;;;;;22.45;16.42;;;4.30;99.90;;;;;;5106803;28;20020;-51
2022/02/21 03:23:02;;;;;;;27.77;16.80;;;4.40;99.90;;;;;;5079535;28;20035;-49
2022/02/21 03:25:28;;;;;;;28.10;16.52;;;4.30;99.90;;;;;;5087812;28;20048;-49
2022/02/21 03:27:53;;;;;;;27.20;16.58;;;4.40;99.90;;;;;;5106670;28;20127;-49
2022/02/21 03:30:19;;;;;;;24.17;15.52;;;4.40;99.90;;;;;;5087123;28;20126;-49
2022/02/21 03:32:45;;;;;;;24.60;13.30;;;4.60;99.90;;;;;;5111652;28;20035;-48
2022/02/21 03:35:13;;;;;;;22.13;15.02;;;4.40;99.90;;;;;;5105836;28;20062;-53
2022/02/21 03:37:39;;;;;;;23.33;13.30;;;4.30;99.90;;;;;;5097074;28;20894;-50
2022/02/21 03:40:06;;;;;;;21.90;14.38;;;4.10;99.90;;;;;;5101246;28;20032;-49
2022/02/21 03:42:33;;;;;;;21.85;13.55;;;4.00;99.90;;;;;;5085408;28;20035;-51
2022/02/21 03:44:59;;;;;;;20.45;12.32;;;3.80;99.90;;;;;;5099967;28;20027;-49
2022/02/21 03:47:25;;;;;;;21.60;14.90;;;3.80;99.90;;;;;;5100724;28;20024;-51
2022/02/21 03:49:51;;;;;;;24.63;15.10;;;4.00;99.90;;;;;;5104769;28;20039;-51
2022/02/21 03:52:17;;;;;;;21.38;13.27;;;4.20;99.90;;;;;;5105620;28;20032;-47
2022/02/21 03:54:42;;;;;;;21.85;14.65;;;4.20;99.90;;;;;;5102358;28;20024;-48
2022/02/21 03:57:08;;;;;;;22.90;15.07;;;4.30;99.90;;;;;;5105477;28;20028;-52
2022/02/21 03:59:34;;;;;;;21.17;15.25;;;4.40;99.90;;;;;;5090680;28;20036;-52
2022/02/21 04:02:00;;;;;;;21.45;14.75;;;4.50;99.90;;;;;;5107359;28;20031;-48
2022/02/21 04:04:25;;;;;;;22.00;15.30;;;4.50;99.90;;;;;;5057621;28;20076;-52
2022/02/21 04:06:51;;;;;;;21.40;13.40;;;4.50;99.90;;;;;;5105765;28;20028;-48
2022/02/21 04:09:17;;;;;;;19.75;12.88;;;4.40;99.90;;;;;;5105865;28;20036;-48
2022/02/21 04:11:43;;;;;;;18.77;12.43;;;4.40;99.90;;;;;;5064247;28;20040;-49
2022/02/21 04:14:09;;;;;;;18.33;11.43;;;4.40;99.90;;;;;;5102203;28;20048;-51
2022/02/21 04:16:34;;;;;;;14.63;10.73;;;4.30;99.90;;;;;;5106812;28;20030;-48
2022/02/21 04:19:04;;;;;;;11.15;7.68;;;4.30;99.90;;;;;;5081459;28;20089;-53
2022/02/21 04:21:31;;;;;;;12.88;8.02;;;4.20;99.90;;;;;;5109537;28;20041;-48
2022/02/21 04:23:57;;;;;;;8.75;6.22;;;4.20;99.90;;;;;;5109167;28;20032;-49
2022/02/21 04:26:23;;;;;;;12.27;8.93;;;4.20;99.90;;;;;;5110078;28;20048;-49
2022/02/21 04:28:49;;;;;;;15.68;9.80;;;4.30;99.90;;;;;;5057384;28;20043;-51
2022/02/21 04:31:17;;;;;;;17.13;11.25;;;4.40;99.90;;;;;;5088223;28;20039;-48
2022/02/21 04:33:47;;;;;;;24.50;15.98;;;4.50;99.90;;;;;;5106040;28;20455;-51
2022/02/21 04:36:14;;;;;;;24.30;14.35;;;4.60;99.90;;;;;;5107213;28;20067;-51
2022/02/21 04:38:40;;;;;;;23.13;14.95;;;4.90;99.90;;;;;;5109538;28;20039;-51
2022/02/21 04:41:06;;;;;;;30.95;17.67;;;5.20;99.90;;;;;;5117618;28;20023;-47
2022/02/21 04:43:32;;;;;;;21.52;13.48;;;5.40;99.90;;;;;;5109681;28;20039;-57
2022/02/21 04:45:59;;;;;;;17.92;12.30;;;5.40;99.90;;;;;;5107798;28;20059;-50
2022/02/21 04:48:27;;;;;;;18.33;11.40;;;5.40;99.90;;;;;;5099406;28;20555;-52
2022/02/21 04:50:54;;;;;;;17.88;12.00;;;5.60;99.90;;;;;;5109534;28;20023;-50
2022/02/21 04:53:19;;;;;;;16.98;11.13;;;5.80;99.90;;;;;;5085136;28;20047;-49
2022/02/21 04:55:45;;;;;;;13.63;10.80;;;5.70;99.90;;;;;;5084089;28;20379;-50
2022/02/21 04:58:11;;;;;;;21.30;14.98;;;5.70;99.90;;;;;;5065030;28;20102;-52
2022/02/21 05:00:40;;;;;;;17.13;12.82;;;5.90;99.90;;;;;;5083965;28;20046;-52
2022/02/21 05:03:06;;;;;;;19.30;13.10;;;5.90;99.90;;;;;;5047390;28;20036;-50
2022/02/21 05:05:31;;;;;;;21.00;12.93;;;6.10;99.90;;;;;;5046737;28;20162;-47
2022/02/21 05:07:58;;;;;;;24.33;15.60;;;6.10;99.90;;;;;;5062639;28;20083;-52
2022/02/21 05:10:26;;;;;;;25.27;15.90;;;6.20;99.90;;;;;;5084203;28;20093;-50
2022/02/21 05:12:52;;;;;;;25.13;18.17;;;6.20;99.90;;;;;;5043707;28;20115;-50
2022/02/21 05:15:17;;;;;;;22.27;16.73;;;6.00;99.90;;;;;;5046283;28;20075;-52
2022/02/21 05:17:43;;;;;;;25.05;16.63;;;6.20;99.90;;;;;;5067659;28;20097;-50
2022/02/21 05:20:11;;;;;;;18.30;12.52;;;6.10;99.90;;;;;;5075290;28;20070;-49
2022/02/21 05:22:36;;;;;;;17.02;11.52;;;5.90;99.90;;;;;;5032239;28;20040;-52
2022/02/21 05:25:04;;;;;;;18.92;11.38;;;5.70;99.90;;;;;;5077646;28;20050;-50
2022/02/21 05:27:34;;;;;;;24.05;16.65;;;5.70;99.90;;;;;;5079216;28;20476;-53
2022/02/21 05:29:59;;;;;;;22.95;15.63;;;5.80;99.90;;;;;;5075313;28;20028;-52
2022/02/21 05:32:25;;;;;;;28.98;17.58;;;5.80;99.90;;;;;;5096507;28;20044;-51
2022/02/21 05:34:52;;;;;;;33.00;20.90;;;5.90;99.90;;;;;;5099711;28;20028;-50
2022/02/21 05:37:17;;;;;;;31.33;19.92;;;5.80;99.90;;;;;;5102091;28;20039;-52
2022/02/21 05:39:43;;;;;;;32.35;21.52;;;5.70;99.90;;;;;;5103797;28;20027;-50
2022/02/21 05:42:09;;;;;;;54.13;33.25;;;5.70;99.90;;;;;;5077526;28;20043;-54
2022/02/21 05:44:35;;;;;;;35.63;23.73;;;5.80;99.90;;;;;;5099642;28;21327;-50
2022/02/21 05:47:00;;;;;;;24.50;17.05;;;5.70;99.90;;;;;;5071769;28;20032;-46
2022/02/21 05:49:27;;;;;;;27.58;17.63;;;5.70;99.90;;;;;;5105275;28;20479;-50
2022/02/21 05:51:52;;;;;;;23.15;16.90;;;5.80;99.90;;;;;;5101308;28;20519;-49
2022/02/21 05:54:18;;;;;;;25.98;20.77;;;5.80;99.90;;;;;;5101496;28;20063;-50
2022/02/21 05:56:44;;;;;;;22.27;17.88;;;5.90;99.90;;;;;;5106605;28;20106;-51
2022/02/21 05:59:10;;;;;;;21.10;15.95;;;5.80;99.90;;;;;;5100345;28;20024;-50
2022/02/21 06:01:36;;;;;;;30.90;19.98;;;5.80;99.90;;;;;;5099937;28;20495;-50
2022/02/21 06:04:01;;;;;;;27.17;20.20;;;5.80;99.90;;;;;;5079485;28;20036;-48
2022/02/21 06:06:27;;;;;;;29.52;20.50;;;5.90;99.90;;;;;;5028890;28;20088;-50
2022/02/21 06:08:53;;;;;;;20.02;17.55;;;6.20;99.90;;;;;;5073009;28;20032;-51
2022/02/21 06:11:18;;;;;;;18.25;14.82;;;7.70;99.90;;;;;;5093490;28;20028;-53
2022/02/21 06:13:45;;;;;;;17.75;14.68;;;;;;;;;;5098439;28;20020;-52
2022/02/21 06:16:10;;;;;;;17.27;12.77;;;11.50;99.90;;;;;;5076905;28;20043;-51
2022/02/21 06:18:36;;;;;;;31.85;21.65;;;;;;;;;;5103770;28;20039;-49
2022/02/21 06:21:02;;;;;;;18.30;13.57;;;14.40;99.90;;;;;;5096252;28;20027;-51
2022/02/21 06:23:28;;;;;;;19.02;12.80;;;15.10;99.90;;;;;;5104081;28;20057;-53
2022/02/21 06:25:54;;;;;;;28.33;25.00;;;;;;;;;;5098287;28;20047;-47
2022/02/21 06:28:24;;;;;;;158.98;78.82;;;;;;;;;;5101506;28;20035;-48
2022/02/21 06:30:51;;;;;;;65.68;36.72;;;;;;;;;;5074521;28;20118;-45
2022/02/21 06:33:16;;;;;;;217.32;106.32;;;18.20;99.90;;;;;;5093731;28;20066;-47
2022/02/21 06:35:43;;;;;;;203.45;106.90;;;18.80;99.90;;;;;;5075567;28;20063;-48
2022/02/21 06:38:09;;;;;;;140.85;79.78;;;19.60;99.90;;;;;;5099402;28;20467;-46
2022/02/21 06:40:35;;;;;;;184.90;129.00;;;;;;;;;;5093344;28;20468;-47
2022/02/21 06:43:02;;;;;;;144.35;103.78;;;21.10;99.90;;;;;;5076160;28;20122;-46
2022/02/21 06:45:28;;;;;;;132.52;97.78;;;20.40;99.90;;;;;;5101850;28;20038;-45
2022/02/21 06:47:55;;;;;;;66.18;51.08;;;21.20;88.60;;;;;;5092092;28;20381;-46
2022/02/21 06:50:22;;;;;;;45.70;35.97;;;21.50;88.50;;;;;;5105739;28;20023;-46
2022/02/21 06:52:48;;;;;;;35.17;28.13;;;;;;;;;;5107223;28;20368;-47
2022/02/21 06:55:15;;;;;;;34.35;26.73;;;20.20;99.90;;;;;;5098404;28;20085;-45
2022/02/21 06:57:42;;;;;;;28.02;24.38;;;;;;;;;;5094885;28;20034;-47
2022/02/21 07:00:08;;;;;;;25.17;21.27;;;21.80;99.90;;;;;;5106293;28;20019;-47
2022/02/21 07:02:34;;;;;;;26.75;21.88;;;20.20;83.70;;;;;;5041793;28;20043;-45
2022/02/21 07:05:00;;;;;;;47.15;34.45;;;20.10;84.40;;;;;;5103860;28;20036;-47
2022/02/21 07:07:26;;;;;;;31.90;25.60;;;19.10;87.00;;;;;;5086993;28;20046;-45
2022/02/21 07:09:52;;;;;;;33.72;26.80;;;;;;;;;;5106625;28;20499;-45
2022/02/21 07:12:17;;;;;;;34.47;26.88;;;17.80;88.30;;;;;;5083131;28;20080;-47
2022/02/21 07:14:44;;;;;;;28.77;23.60;;;;;;;;;;5105538;28;20027;-47
2022/02/21 07:17:10;;;;;;;27.15;23.05;;;19.00;90.10;;;;;;5105619;28;20038;-45
2022/02/21 07:19:36;;;;;;;28.95;23.50;;;18.80;89.80;;;;;;5097970;28;20028;-48
2022/02/21 07:22:01;;;;;;;24.58;21.52;;;21.40;88.10;;;;;;5096863;28;20057;-46
2022/02/21 07:24:27;;;;;;;32.75;24.50;;;21.90;85.80;;;;;;5074137;28;20125;-45
2022/02/21 07:26:53;;;;;;;25.55;22.02;;;22.80;85.60;;;;;;5073822;28;20082;-47
2022/02/21 07:29:19;;;;;;;25.95;21.52;;;22.40;91.30;;;;;;5096550;28;20035;-47
2022/02/21 07:31:46;;;;;;;28.52;25.50;;;20.90;84.20;;;;;;5053071;28;20388;-48
2022/02/21 07:34:11;;;;;;;29.10;25.95;;;21.20;93.30;;;;;;5095320;28;20030;-49
2022/02/21 07:36:37;;;;;;;25.85;22.92;;;22.90;85.40;;;;;;5074549;28;20040;-48
2022/02/21 07:39:04;;;;;;;23.40;21.00;;;21.10;85.50;;;;;;5090760;28;20041;-49
2022/02/21 07:41:30;;;;;;;20.83;18.38;;;22.70;91.30;;;;;;5095623;28;20057;-48
2022/02/21 07:43:56;;;;;;;19.02;16.70;;;;;;;;;;5055635;28;20040;-50
2022/02/21 07:46:22;;;;;;;20.35;17.02;;;;;;;;;;5100064;28;20031;-46
2022/02/21 07:48:49;;;;;;;19.13;16.75;;;;;;;;;;5080677;28;20126;-45
2022/02/21 07:51:14;;;;;;;20.40;17.02;;;26.90;80.10;;;;;;5080431;28;20488;-44
2022/02/21 07:53:40;;;;;;;26.88;21.73;;;;;;;;;;5084947;28;20052;-46
2022/02/21 07:56:07;;;;;;;19.70;17.67;;;;;;;;;;5050029;28;20067;-46
2022/02/21 07:58:33;;;;;;;14.82;12.60;;;;;;;;;;5081364;28;20479;-45
2022/02/21 08:00:59;;;;;;;13.07;11.77;;;28.70;91.10;;;;;;5086282;28;20496;-47
2022/02/21 08:03:24;;;;;;;14.73;12.52;;;28.60;79.30;;;;;;5090875;28;20125;-46
2022/02/21 08:05:55;;;;;;;20.70;13.57;;;27.40;75.00;;;;;;5058316;28;20040;-45
2022/02/21 08:08:21;;;;;;;13.05;11.68;;;26.10;75.90;;;;;;5088773;28;20043;-45
2022/02/21 08:10:47;;;;;;;15.43;13.52;;;26.00;77.20;;;;;;5088373;28;20032;-46
2022/02/21 08:13:12;;;;;;;15.18;13.55;;;27.00;76.80;;;;;;5075551;28;20028;-46
2022/02/21 08:15:38;;;;;;;14.40;12.90;;;26.20;77.70;;;;;;5085740;28;20119;-45
2022/02/21 08:18:04;;;;;;;13.40;11.98;;;26.70;77.70;;;;;;5055228;28;20052;-45
2022/02/21 08:20:29;;;;;;;14.13;12.73;;;27.20;77.20;;;;;;5082137;28;20029;-45
2022/02/21 08:22:56;;;;;;;15.85;13.35;;;27.10;79.90;;;;;;5095212;28;20043;-45
2022/02/21 08:25:21;;;;;;;14.68;13.13;;;25.60;77.20;;;;;;5113021;28;20555;-45
2022/02/21 08:27:47;;;;;;;16.63;14.80;;;25.90;78.00;;;;;;5101671;28;20035;-46
2022/02/21 08:30:16;;;;;;;18.65;16.70;;;25.30;78.60;;;;;;5097583;28;20081;-45
2022/02/21 08:32:42;;;;;;;16.75;15.00;;;26.00;78.60;;;;;;5105807;28;20062;-44
2022/02/21 08:35:09;;;;;;;15.93;14.25;;;25.90;78.60;;;;;;5111834;28;20039;-47
2022/02/21 08:37:35;;;;;;;19.00;17.00;;;25.70;78.00;;;;;;5101513;28;20044;-45
2022/02/21 08:40:05;;;;;;;21.33;17.45;;;24.80;79.40;;;;;;5103996;28;20028;-47
2022/02/21 08:42:31;;;;;;;18.38;16.48;;;;;;;;;;5101259;28;20040;-46
2022/02/21 08:44:57;;;;;;;16.77;14.20;;;;;;;;;;5101471;28;20027;-46
2022/02/21 08:47:23;;;;;;;15.52;13.27;;;27.70;76.30;;;;;;5109527;28;20030;-44
2022/02/21 08:49:49;;;;;;;13.48;12.07;;;27.60;77.10;;;;;;5094704;28;20032;-44
2022/02/21 08:52:18;;;;;;;11.88;10.50;;;27.40;77.60;;;;;;5101117;28;20032;-44
2022/02/21 08:54:44;;;;;;;9.52;7.43;;;25.90;77.90;;;;;;5084852;28;20549;-47
2022/02/21 08:57:10;;;;;;;13.75;9.88;;;25.10;78.20;;;;;;5107875;28;20130;-44
2022/02/21 08:59:37;;;;;;;10.98;9.25;;;24.00;79.70;;;;;;5103281;28;20043;-46
2022/02/21 09:02:03;;;;;;;8.27;5.80;;;24.80;80.70;;;;;;5092262;28;20031;-44
2022/02/21 09:04:29;;;;;;;5.05;3.95;;;24.80;78.10;;;;;;5054604;28;20047;-47
2022/02/21 09:06:55;;;;;;;4.50;3.30;;;23.30;79.60;;;;;;5096822;28;20085;-44
2022/02/21 09:09:24;;;;;;;3.85;3.42;;;21.50;81.20;;;;;;5061398;28;20036;-46
2022/02/21 09:11:51;;;;;;;3.80;3.50;;;;;;;;;;5097164;28;20035;-46
2022/02/21 09:14:18;;;;;;;3.28;2.97;;;21.20;97.40;;;;;;5094780;28;20031;-46
2022/02/21 09:16:44;;;;;;;3.17;2.53;;;21.00;82.50;;;;;;5096135;28;20023;-46
2022/02/21 09:19:10;;;;;;;3.78;1.90;;;21.00;82.70;;;;;;5099818;28;20095;-45
2022/02/21 09:21:36;;;;;;;3.55;3.05;;;19.90;80.10;;;;;;5095637;28;20082;-47
2022/02/21 09:24:02;;;;;;;2.55;2.08;;;19.60;80.50;;;;;;5092682;28;20029;-44
2022/02/21 09:26:29;;;;;;;2.35;2.10;;;19.00;82.40;;;;;;5097671;28;20047;-46
2022/02/21 09:28:59;;;;;;;3.65;3.03;;;19.10;83.70;;;;;;5098313;28;20050;-45
2022/02/21 09:31:25;;;;;;;4.28;3.63;;;;;;;;;;5095992;28;20035;-47
2022/02/21 09:33:51;;;;;;;12.85;6.97;;;21.40;97.50;;;;;;5092522;28;20028;-46
2022/02/21 09:36:17;;;;;;;6.43;4.60;;;22.60;80.50;;;;;;5095572;28;20044;-47
2022/02/21 09:38:42;;;;;;;2.55;1.92;;;22.20;80.90;;;;;;5100586;28;20039;-45
2022/02/21 09:41:08;;;;;;;2.60;1.85;;;21.30;79.60;;;;;;5100064;28;20461;-44
2022/02/21 09:43:34;;;;;;;3.78;2.40;;;20.80;81.20;;;;;;5104673;27;20046;-47
2022/02/21 09:46:05;;;;;;;3.53;2.30;;;21.60;80.00;;;;;;5087213;28;20142;-45
2022/02/21 09:48:32;;;;;;;4.93;2.40;;;;;;;;;;5102790;28;20024;-45
2022/02/21 09:51:01;;;;;;;2.60;1.58;;;;;;;;;;5099294;28;20063;-44
2022/02/21 09:53:32;;;;;;;4.55;3.55;;;19.60;99.50;;;;;;5095413;28;20020;-47
2022/02/21 09:55:58;;;;;;;7.43;4.28;;;19.80;99.90;;;;;;5096332;28;20028;-45
2022/02/21 09:58:24;;;;;;;4.28;2.33;;;;;;;;;;5096049;28;20534;-47
2022/02/21 10:00:52;;;;;;;8.27;5.72;;;;;;;;;;5094991;28;20106;-44
2022/02/21 10:03:39;;;;;;;9.05;5.57;;;;;;;;;;5097993;28;20030;-47
2022/02/21 10:06:18;;;;;;;8.50;6.68;;;;;;;;;;5108973;28;20077;-47
2022/02/21 10:09:03;;;;;;;8.13;4.35;;;;;;;;;;5105392;28;20027;-47
2022/02/21 10:11:33;;;;;;;14.05;6.75;;;;;;;;;;5106736;28;20491;-44
2022/02/21 10:14:03;;;;;;;9.10;7.97;;;22.30;88.40;;;;;;5099285;28;20019;-45
2022/02/21 10:16:46;;;;;;;11.05;7.78;;;23.70;78.10;;;;;;5110405;28;20437;-45
2022/02/21 10:19:13;;;;;;;4.28;3.70;;;24.90;76.10;;;;;;5093040;28;20074;-46
2022/02/21 10:21:59;;;;;;;4.40;2.53;;;24.60;76.30;;;;;;5092243;28;20077;-47
2022/02/21 10:36:01;;;;;;;64.10;59.80;;;24.70;95.00;;;;;;5038028;27;1335585;-46
2022/02/21 10:38:47;;;;;;;18.25;13.63;;;;;;;;;;5066060;28;20032;-46
2022/02/21 10:41:13;;;;;;;21.13;18.92;;;;;;;;;;5064545;28;20889;-47
2022/02/21 10:43:39;;;;;;;10.70;6.15;;;27.20;71.20;;;;;;5069929;28;20039;-47
2022/02/21 10:46:15;;;;;;;24.13;13.63;;;;;;;;;;5066820;28;20033;-46
2022/02/21 10:48:43;;;;;;;31.40;19.58;;;26.90;77.10;;;;;;5065491;28;20036;-48
2022/02/21 10:51:10;;;;;;;5.25;2.83;;;26.40;94.60;;;;;;5066441;28;20028;-48
2022/02/21 10:53:41;;;;;;;3.45;1.75;;;25.80;74.30;;;;;;5065836;28;20025;-47
2022/02/21 10:56:09;;;;;;;2.72;2.10;;;25.20;74.40;;;;;;5065255;28;20052;-46
2022/02/21 10:58:34;;;;;;;3.08;2.33;;;25.00;73.40;;;;;;5066194;28;20037;-47
2022/02/21 11:01:01;;;;;;;4.95;2.42;;;25.00;74.70;;;;;;4978333;28;20419;-48
2022/02/21 11:03:29;;;;;;;7.38;2.45;;;25.00;74.20;;;;;;5079098;28;20028;-47
2022/02/21 11:05:56;;;;;;;11.32;2.88;;;25.10;74.50;;;;;;5027930;28;20060;-48
2022/02/21 11:08:26;;;;;;;3.83;2.60;;;24.90;76.10;;;;;;5082503;28;20027;-46
2022/02/21 11:11:04;;;;;;;7.15;4.45;;;25.00;74.60;;;;;;5080244;28;20078;-48
2022/02/21 11:13:32;;;;;;;11.25;3.55;;;24.70;76.10;;;;;;5072158;28;20042;-43
2022/02/21 11:15:58;;;;;;;1.90;1.65;;;24.00;76.10;;;;;;5043336;28;20101;-43
2022/02/21 11:18:24;;;;;;;5.85;2.95;;;23.90;74.60;;;;;;5075035;28;20425;-48
2022/02/21 11:20:51;;;;;;;3.72;2.60;;;23.80;74.60;;;;;;5060895;28;20039;-47
2022/02/21 11:23:16;;;;;;;3.85;2.58;;;24.00;76.60;;;;;;5023643;28;20060;-47
2022/02/21 11:25:55;;;;;;;2.80;1.83;;;24.00;76.50;;;;;;5081741;28;20051;-45
2022/02/21 11:28:46;;;;;;;8.10;2.58;;;24.00;74.80;;;;;;5071141;28;20025;-45
2022/02/21 11:31:18;;;;;;;2.47;2.22;;;24.00;74.70;;;;;;4942429;29;20050;-48
2022/02/21 11:34:02;;;;;;;1.77;1.30;;;23.90;74.90;;;;;;4947426;28;20036;-47
2022/02/21 11:36:28;;;;;;;3.45;1.90;;;23.60;74.10;;;;;;4935493;29;20055;-46
2022/02/21 11:38:55;;;;;;;2.22;1.40;;;23.50;76.00;;;;;;4936244;29;20032;-46
2022/02/21 11:41:31;;;;;;;3.45;1.70;;;23.30;76.00;;;;;;4935621;29;20039;-46
2022/02/21 11:43:57;;;;;;;5.85;2.47;;;23.10;74.80;;;;;;4936080;29;20044;-46
2022/02/21 11:46:31;;;;;;;3.67;2.28;;;23.00;75.80;;;;;;4935687;29;20063;-47
2022/02/21 11:49:02;;;;;;;3.75;2.13;;;23.30;77.00;;;;;;4920499;29;20062;-47
2022/02/21 11:51:38;;;;;;;6.00;1.45;;;23.00;75.30;;;;;;4935747;29;20103;-47
2022/02/21 11:54:09;;;;;;;3.33;1.90;;;22.70;76.00;;;;;;4935559;29;20114;-47
2022/02/21 11:56:50;;;;;;;2.05;1.52;;;22.50;78.20;;;;;;4932254;29;20475;-47
2022/02/21 11:59:24;;;;;;;2.33;1.50;;;22.40;77.60;;;;;;4935803;29;20176;-47
2022/02/21 12:02:04;;;;;;;6.03;1.85;;;22.50;76.00;;;;;;4935768;29;20492;-47
2022/02/21 12:04:48;;;;;;;6.60;2.22;;;22.50;77.90;;;;;;4936422;29;20040;-47
2022/02/21 12:07:35;;;;;;;2.78;1.45;;;22.50;76.80;;;;;;4931918;28;20095;-47
2022/02/21 12:10:21;;;;;;;2.28;1.48;;;22.50;75.70;;;;;;5050475;28;20033;-47
2022/02/21 12:12:53;;;;;;;8.52;2.08;;;22.40;77.10;;;;;;5005542;28;20116;-47
2022/02/21 12:15:19;;;;;;;7.30;2.67;;;22.40;78.50;;;;;;5010356;28;20026;-47
2022/02/21 12:17:45;;;;;;;9.07;2.38;;;22.40;77.00;;;;;;5013718;28;20033;-47
2022/02/21 12:20:32;;;;;;;2.08;1.25;;;22.40;77.40;;;;;;4978966;28;20045;-47
2022/02/21 12:23:17;;;;;;;12.00;4.10;;;22.50;78.30;;;;;;5011938;28;20040;-47
2022/02/21 12:26:04;;;;;;;6.45;1.90;;;22.50;77.50;;;;;;4980256;28;20042;-47
2022/02/21 12:28:34;;;;;;;5.28;3.00;;;21.90;76.90;;;;;;5008161;28;20057;-48
2022/02/21 12:31:00;;;;;;;13.05;5.10;;;21.90;77.80;;;;;;5009862;28;20034;-47
2022/02/21 12:33:38;;;;;;;8.85;5.68;;;21.40;78.10;;;;;;5013274;28;20041;-47
2022/02/21 12:36:07;;;;;;;7.68;4.43;;;21.40;77.70;;;;;;5009922;28;21362;-47
2022/02/21 12:38:34;;;;;;;6.30;3.17;;;21.40;78.70;;;;;;4991453;28;20045;-47
2022/02/21 12:41:08;;;;;;;7.50;4.55;;;21.20;78.70;;;;;;4994260;28;20038;-47
2022/02/21 12:43:57;;;;;;;5.35;3.78;;;21.10;79.30;;;;;;4997536;28;20148;-47
2022/02/21 12:46:34;;;;;;;9.88;5.47;;;20.80;79.30;;;;;;5052039;28;20037;-47
2022/02/21 12:49:02;;;;;;;13.55;6.35;;;21.10;79.60;;;;;;5049807;28;20029;-47
2022/02/21 12:51:37;;;;;;;4.85;2.72;;;20.90;79.50;;;;;;5016407;28;20056;-47
2022/02/21 12:54:09;;;;;;;6.72;4.07;;;20.20;79.00;;;;;;4986832;28;20396;-47
2022/02/21 12:56:53;;;;;;;7.40;4.88;;;19.80;80.80;;;;;;5050131;28;20021;-47
2022/02/21 12:59:27;;;;;;;12.95;7.15;;;20.50;85.70;;;;;;5047691;28;20511;-47
2022/02/21 13:01:55;;;;;;;12.68;7.70;;;19.90;83.10;;;;;;5052511;28;20025;-47